ADDS METAR Data INFO
IDs: Format: Raw Decoded Include TAF

Data at: 0233 UTC 21 Nov 2017

KLAR 210153Z AUTO 25007KT 10SM OVC090 05/M11 A2997 RMK AO2 SLP120 T00501111